createdAt,value
2024-05-09T00:00:39.703Z,8.09
2024-05-09T00:01:36.374Z,8.12
2024-05-09T00:02:36.395Z,8.01
2024-05-09T00:03:36.363Z,7.94
2024-05-09T00:04:36.353Z,7.85
2024-05-09T00:05:37.028Z,7.82
2024-05-09T00:06:36.297Z,7.85
2024-05-09T00:07:36.310Z,7.83
2024-05-09T00:08:36.383Z,7.97
2024-05-09T00:09:36.282Z,7.85
2024-05-09T00:10:38.623Z,7.94
2024-05-09T00:11:36.320Z,7.94
2024-05-09T00:12:36.292Z,7.94
2024-05-09T00:13:36.280Z,8.01
2024-05-09T00:14:36.291Z,8.00
2024-05-09T00:15:36.803Z,7.93
2024-05-09T00:16:36.253Z,7.93
2024-05-09T00:17:36.342Z,7.83
2024-05-09T00:18:36.368Z,7.77
2024-05-09T00:19:36.285Z,7.72
2024-05-09T00:20:39.699Z,7.79
2024-05-09T00:21:36.213Z,7.60
2024-05-09T00:22:36.210Z,7.61
2024-05-09T00:23:36.291Z,7.61
2024-05-09T00:24:36.195Z,7.42
2024-05-09T00:25:36.203Z,7.47
2024-05-09T00:26:36.295Z,7.58
2024-05-09T00:27:36.197Z,7.70
2024-05-09T00:28:36.223Z,7.76
2024-05-09T00:29:36.249Z,7.70
2024-05-09T00:30:37.300Z,7.56
2024-05-09T00:31:36.158Z,7.53
2024-05-09T00:32:36.446Z,7.45
2024-05-09T00:33:36.218Z,7.53
2024-05-09T00:34:36.167Z,7.45
2024-05-09T00:35:36.326Z,7.42
2024-05-09T00:36:36.134Z,7.47
2024-05-09T00:37:36.123Z,7.48
2024-05-09T00:38:36.245Z,7.53
2024-05-09T00:39:36.123Z,7.48
2024-05-09T00:40:39.900Z,7.47
2024-05-09T00:41:37.303Z,7.47
2024-05-09T00:42:36.115Z,7.54
2024-05-09T00:43:36.091Z,7.48
2024-05-09T00:44:36.150Z,7.50
2024-05-09T00:45:36.275Z,7.39
2024-05-09T00:46:36.112Z,7.43
2024-05-09T00:47:36.249Z,7.42
2024-05-09T00:48:36.223Z,7.31
2024-05-09T00:49:36.195Z,7.32
2024-05-09T00:50:37.628Z,7.33
2024-05-09T00:51:36.051Z,7.33
2024-05-09T00:52:36.039Z,7.29
2024-05-09T00:53:36.075Z,7.33
2024-05-09T00:54:36.035Z,7.40
2024-05-09T00:55:36.059Z,7.32
2024-05-09T00:56:36.075Z,7.36
2024-05-09T00:57:36.010Z,7.40
2024-05-09T00:58:36.007Z,7.33
2024-05-09T00:59:36.091Z,7.29
2024-05-09T01:00:39.723Z,7.21
2024-05-09T01:01:37.170Z,7.18
2024-05-09T01:02:36.086Z,7.20
2024-05-09T01:03:36.129Z,7.20
2024-05-09T01:04:36.068Z,7.28
2024-05-09T01:05:36.067Z,7.18
2024-05-09T01:06:35.969Z,7.23
2024-05-09T01:07:35.991Z,7.15
2024-05-09T01:08:36.070Z,7.18
2024-05-09T01:09:35.951Z,7.18
2024-05-09T01:10:36.639Z,7.14
2024-05-09T01:11:36.054Z,7.17
2024-05-09T01:12:35.995Z,7.00
2024-05-09T01:13:35.949Z,7.05
2024-05-09T01:14:35.939Z,6.93
2024-05-09T01:15:36.108Z,7.14
2024-05-09T01:16:35.903Z,7.02
2024-05-09T01:17:36.043Z,7.00
2024-05-09T01:18:36.022Z,6.93
2024-05-09T01:19:35.958Z,7.02
2024-05-09T01:20:41.753Z,6.96
2024-05-09T01:21:36.890Z,6.93
2024-05-09T01:22:35.880Z,6.89
2024-05-09T01:23:35.935Z,6.87
2024-05-09T01:24:35.902Z,6.87
2024-05-09T01:25:35.907Z,6.84
2024-05-09T01:26:35.873Z,6.88
2024-05-09T01:27:35.850Z,6.87
2024-05-09T01:28:35.838Z,6.93
2024-05-09T01:29:35.946Z,6.89
2024-05-09T01:30:37.521Z,6.85
2024-05-09T01:31:35.865Z,6.97
2024-05-09T01:32:35.919Z,6.99
2024-05-09T01:33:35.962Z,6.96
2024-05-09T01:34:35.838Z,7.06
2024-05-09T01:35:35.924Z,6.93
2024-05-09T01:36:35.821Z,6.96
2024-05-09T01:37:35.829Z,6.88
2024-05-09T01:38:35.875Z,7.06
2024-05-09T01:39:35.778Z,6.89
2024-05-09T01:40:38.922Z,6.97
2024-05-09T01:41:35.798Z,6.96
2024-05-09T01:42:35.766Z,7.00
2024-05-09T01:43:35.772Z,6.97
2024-05-09T01:44:35.775Z,6.88
2024-05-09T01:45:35.757Z,6.85
2024-05-09T01:46:35.739Z,6.82
2024-05-09T01:47:35.824Z,6.82
2024-05-09T01:48:35.808Z,6.85
2024-05-09T01:49:35.817Z,6.89
2024-05-09T01:50:39.881Z,6.84
2024-05-09T01:51:36.724Z,6.89
2024-05-09T01:52:35.709Z,6.93
2024-05-09T01:53:35.774Z,7.06
2024-05-09T01:54:35.723Z,6.88
2024-05-09T01:55:35.726Z,7.00
2024-05-09T01:56:35.763Z,6.82
2024-05-09T01:57:35.684Z,6.67
2024-05-09T01:58:35.684Z,6.72
2024-05-09T01:59:35.705Z,6.70
2024-05-09T02:00:40.110Z,6.79
2024-05-09T02:01:55.606Z,6.62
2024-05-09T02:02:36.717Z,6.62
2024-05-09T02:03:35.764Z,6.56
2024-05-09T02:04:35.727Z,6.54
2024-05-09T02:05:35.841Z,6.66
2024-05-09T02:06:35.661Z,6.54
2024-05-09T02:07:35.644Z,6.60
2024-05-09T02:08:35.779Z,6.57
2024-05-09T02:09:35.626Z,6.48
2024-05-09T02:10:35.618Z,6.60
2024-05-09T02:11:35.722Z,6.60
2024-05-09T02:12:35.635Z,6.62
2024-05-09T02:13:35.600Z,6.75
2024-05-09T02:14:35.676Z,6.64
2024-05-09T02:15:35.590Z,6.60
2024-05-09T02:16:35.579Z,6.59
2024-05-09T02:17:35.705Z,6.57
2024-05-09T02:18:35.623Z,6.54
2024-05-09T02:19:35.649Z,6.57
2024-05-09T02:20:36.899Z,6.56
2024-05-09T02:21:35.562Z,6.59
2024-05-09T02:22:35.599Z,6.62
2024-05-09T02:23:35.578Z,6.52
2024-05-09T02:24:35.574Z,6.48
2024-05-09T02:25:35.566Z,6.54
2024-05-09T02:26:35.560Z,6.56
2024-05-09T02:27:35.529Z,6.64
2024-05-09T02:28:35.542Z,6.59
2024-05-09T02:29:35.549Z,6.49
2024-05-09T02:30:40.000Z,6.57
2024-05-09T02:31:36.503Z,6.48
2024-05-09T02:32:35.690Z,6.42
2024-05-09T02:33:35.689Z,6.35
2024-05-09T02:34:35.566Z,6.51
2024-05-09T02:35:35.574Z,6.46
2024-05-09T02:36:35.476Z,6.48
2024-05-09T02:37:35.467Z,6.59
2024-05-09T02:38:35.585Z,6.66
2024-05-09T02:39:35.457Z,6.72
2024-05-09T02:40:38.286Z,6.82
2024-05-09T02:41:35.518Z,6.87
2024-05-09T02:42:35.443Z,6.85
2024-05-09T02:43:35.479Z,6.89
2024-05-09T02:44:35.449Z,6.89
2024-05-09T02:45:35.426Z,6.87
2024-05-09T02:46:35.433Z,6.92
2024-05-09T02:47:35.546Z,6.79
2024-05-09T02:48:35.481Z,6.88
2024-05-09T02:49:35.515Z,6.78
2024-05-09T02:50:39.029Z,6.77
2024-05-09T02:51:35.397Z,6.74
2024-05-09T02:52:35.424Z,6.74
2024-05-09T02:53:35.487Z,6.70
2024-05-09T02:54:35.380Z,6.81
2024-05-09T02:55:35.403Z,6.74
2024-05-09T02:56:35.459Z,6.67
2024-05-09T02:57:35.372Z,6.69
2024-05-09T02:58:35.363Z,6.62
2024-05-09T02:59:35.382Z,6.66
2024-05-09T03:00:39.633Z,6.62
2024-05-09T03:01:36.437Z,6.52
2024-05-09T03:02:35.471Z,6.59
2024-05-09T03:03:35.507Z,6.62
2024-05-09T03:04:35.336Z,6.60
2024-05-09T03:05:35.588Z,6.62
2024-05-09T03:06:35.339Z,6.54
2024-05-09T03:07:35.328Z,6.63
2024-05-09T03:08:35.375Z,6.66
2024-05-09T03:09:35.293Z,6.56
2024-05-09T03:10:37.696Z,6.62
2024-05-09T03:11:35.385Z,6.67
2024-05-09T03:12:37.973Z,6.67
2024-05-09T03:13:35.289Z,6.66
2024-05-09T03:14:35.339Z,6.75
2024-05-09T03:15:35.276Z,6.74
2024-05-09T03:16:35.272Z,6.74
2024-05-09T03:17:35.502Z,6.77
2024-05-09T03:18:35.339Z,6.85
2024-05-09T03:19:35.267Z,6.96
2024-05-09T03:20:36.405Z,6.85
2024-05-09T03:21:35.249Z,6.87
2024-05-09T03:22:35.230Z,6.93
2024-05-09T03:23:35.229Z,6.84
2024-05-09T03:24:35.204Z,7.05
2024-05-09T03:25:35.199Z,6.93
2024-05-09T03:26:35.298Z,6.87
2024-05-09T03:27:35.188Z,6.89
2024-05-09T03:28:35.189Z,6.96
2024-05-09T03:29:35.218Z,6.92
2024-05-09T03:30:40.527Z,6.88
2024-05-09T03:31:36.210Z,6.93
2024-05-09T03:32:35.323Z,6.88
2024-05-09T03:33:35.520Z,6.99
2024-05-09T03:34:35.152Z,6.99
2024-05-09T03:35:35.222Z,7.10
2024-05-09T03:36:35.149Z,7.02
2024-05-09T03:37:35.154Z,7.03
2024-05-09T03:38:35.313Z,7.05
2024-05-09T03:39:35.134Z,7.03
2024-05-09T03:40:35.133Z,7.07
2024-05-09T03:41:35.181Z,7.18
2024-05-09T03:42:35.124Z,7.15
2024-05-09T03:43:35.139Z,7.14
2024-05-09T03:44:35.163Z,7.10
2024-05-09T03:45:35.093Z,7.07
2024-05-09T03:46:35.089Z,7.13
2024-05-09T03:47:35.286Z,7.02
2024-05-09T03:48:35.117Z,7.18
2024-05-09T03:49:35.146Z,7.15
2024-05-09T03:50:36.331Z,7.23
2024-05-09T03:51:35.092Z,7.11
2024-05-09T03:52:35.044Z,7.06
2024-05-09T03:53:35.166Z,7.07
2024-05-09T03:54:35.065Z,7.24
2024-05-09T03:55:35.045Z,7.20
2024-05-09T03:56:35.094Z,7.11
2024-05-09T03:57:35.053Z,7.24
2024-05-09T03:58:35.028Z,7.14
2024-05-09T03:59:35.069Z,7.13
2024-05-09T04:00:38.607Z,7.18
2024-05-09T04:01:36.066Z,7.21
2024-05-09T04:02:35.089Z,7.17
2024-05-09T04:03:35.100Z,7.15
2024-05-09T04:04:35.105Z,7.17
2024-05-09T04:05:35.271Z,7.20
2024-05-09T04:06:34.998Z,7.20
2024-05-09T04:07:34.976Z,7.20
2024-05-09T04:08:35.089Z,7.24
2024-05-09T04:09:34.973Z,7.32
2024-05-09T04:10:35.535Z,7.42
2024-05-09T04:11:35.056Z,7.25
2024-05-09T04:12:34.987Z,7.17
2024-05-09T04:13:34.932Z,7.11
2024-05-09T04:14:35.017Z,7.00
2024-05-09T04:15:34.951Z,7.03
2024-05-09T04:16:34.916Z,7.07
2024-05-09T04:17:35.086Z,7.11
2024-05-09T04:18:35.032Z,7.02
2024-05-09T04:19:34.996Z,6.93
2024-05-09T04:20:39.022Z,6.93
2024-05-09T04:21:35.904Z,6.97
2024-05-09T04:22:34.892Z,6.96
2024-05-09T04:23:35.066Z,7.07
2024-05-09T04:24:34.884Z,7.18
2024-05-09T04:25:35.012Z,7.32
2024-05-09T04:26:34.940Z,7.21
2024-05-09T04:27:34.853Z,7.36
2024-05-09T04:28:34.873Z,7.29
2024-05-09T04:29:34.898Z,7.32
2024-05-09T04:30:39.042Z,7.42
2024-05-09T04:31:35.843Z,7.48
2024-05-09T04:32:35.006Z,7.32
2024-05-09T04:33:35.102Z,7.23
2024-05-09T04:34:34.973Z,7.28
2024-05-09T04:35:34.850Z,7.40
2024-05-09T04:36:34.812Z,7.35
2024-05-09T04:37:34.810Z,7.42
2024-05-09T04:38:34.922Z,7.43
2024-05-09T04:39:34.798Z,7.51
2024-05-09T04:40:36.755Z,7.40
2024-05-09T04:41:34.858Z,7.33
2024-05-09T04:42:34.771Z,7.25
2024-05-09T04:43:34.769Z,7.33
2024-05-09T04:44:34.778Z,7.13
2024-05-09T04:45:35.121Z,7.00
2024-05-09T04:46:34.761Z,6.82
2024-05-09T04:47:34.887Z,6.89
2024-05-09T04:48:34.805Z,7.10
2024-05-09T04:49:34.947Z,7.11
2024-05-09T04:50:38.246Z,7.06
2024-05-09T04:51:34.747Z,7.17
2024-05-09T04:52:34.725Z,7.21
2024-05-09T04:53:34.775Z,7.33
2024-05-09T04:54:36.576Z,7.45
2024-05-09T04:55:34.744Z,7.43
2024-05-09T04:56:34.772Z,7.54
2024-05-09T04:57:34.715Z,7.60
2024-05-09T04:58:34.718Z,7.67
2024-05-09T04:59:34.755Z,7.69
2024-05-09T05:00:37.373Z,7.58
2024-05-09T05:01:34.746Z,7.66
2024-05-09T05:02:34.754Z,7.66
2024-05-09T05:03:34.804Z,7.67
2024-05-09T05:04:34.687Z,7.58
2024-05-09T05:05:34.718Z,7.80
2024-05-09T05:06:34.690Z,7.93
2024-05-09T05:07:34.643Z,8.00
2024-05-09T05:08:34.722Z,7.97
2024-05-09T05:09:34.631Z,7.97
2024-05-09T05:10:36.577Z,8.12
2024-05-09T05:11:34.727Z,8.18
2024-05-09T05:12:34.818Z,8.23
2024-05-09T05:13:36.653Z,8.16
2024-05-09T05:14:34.646Z,8.09
2024-05-09T05:15:34.599Z,8.12
2024-05-09T05:16:34.589Z,8.19
2024-05-09T05:17:34.831Z,8.36
2024-05-09T05:18:34.674Z,8.28
2024-05-09T05:19:34.763Z,8.26
2024-05-09T05:20:34.741Z,8.41
2024-05-09T05:21:34.648Z,8.48
2024-05-09T05:22:34.559Z,8.51
2024-05-09T05:23:34.793Z,8.48
2024-05-09T05:24:34.560Z,8.46
2024-05-09T05:25:34.565Z,8.55
2024-05-09T05:26:34.764Z,8.66
2024-05-09T05:27:34.532Z,8.85
2024-05-09T05:28:34.543Z,8.78
2024-05-09T05:29:34.658Z,8.78
2024-05-09T05:30:35.190Z,8.67
2024-05-09T05:31:34.538Z,8.60
2024-05-09T05:32:34.730Z,8.61
2024-05-09T05:33:34.659Z,8.70
2024-05-09T05:34:34.491Z,8.76
2024-05-09T05:35:34.793Z,8.67
2024-05-09T05:36:34.481Z,8.66
2024-05-09T05:37:34.466Z,8.91
2024-05-09T05:38:34.549Z,8.94
2024-05-09T05:39:34.500Z,9.11
2024-05-09T05:40:37.221Z,9.06
2024-05-09T05:41:34.544Z,8.85
2024-05-09T05:42:34.441Z,8.60
2024-05-09T05:43:34.438Z,8.69
2024-05-09T05:44:34.457Z,8.66
2024-05-09T05:45:34.451Z,8.67
2024-05-09T05:46:34.419Z,8.87
2024-05-09T05:47:34.729Z,8.73
2024-05-09T05:48:34.558Z,8.61
2024-05-09T05:49:34.485Z,8.33
2024-05-09T05:50:37.000Z,8.23
2024-05-09T05:51:34.410Z,8.36
2024-05-09T05:52:34.390Z,8.55
2024-05-09T05:53:34.725Z,8.81
2024-05-09T05:54:34.375Z,9.06
2024-05-09T05:55:34.405Z,9.11
2024-05-09T05:56:34.439Z,9.25
2024-05-09T05:57:34.372Z,9.46
2024-05-09T05:58:34.351Z,9.55
2024-05-09T05:59:34.519Z,9.40
2024-05-09T06:00:38.436Z,9.37
2024-05-09T06:01:35.419Z,9.39
2024-05-09T06:02:34.470Z,9.39
2024-05-09T06:03:34.355Z,9.55
2024-05-09T06:04:34.426Z,9.69
2024-05-09T06:05:34.376Z,9.82
2024-05-09T06:06:34.339Z,9.66
2024-05-09T06:07:34.313Z,9.86
2024-05-09T06:08:34.387Z,9.98
2024-05-09T06:09:34.301Z,9.76
2024-05-09T06:10:38.528Z,9.87
2024-05-09T06:11:35.369Z,9.72
2024-05-09T06:12:34.280Z,9.50
2024-05-09T06:13:34.284Z,9.50
2024-05-09T06:14:34.323Z,9.69
2024-05-09T06:15:34.432Z,9.83
2024-05-09T06:16:34.265Z,9.69
2024-05-09T06:17:34.388Z,9.95
2024-05-09T06:18:34.347Z,10.15
2024-05-09T06:19:34.302Z,10.31
2024-05-09T06:20:37.124Z,10.64
2024-05-09T06:21:34.284Z,10.68
2024-05-09T06:22:34.214Z,10.75
2024-05-09T06:23:34.336Z,10.64
2024-05-09T06:24:34.210Z,10.71
2024-05-09T06:25:34.214Z,11.17
2024-05-09T06:26:34.256Z,11.33
2024-05-09T06:27:34.208Z,11.45
2024-05-09T06:28:34.179Z,12.03
2024-05-09T06:29:34.193Z,11.78
2024-05-09T06:30:38.530Z,11.84
2024-05-09T06:31:35.168Z,11.48
2024-05-09T06:32:34.334Z,11.47
2024-05-09T06:33:34.642Z,11.63
2024-05-09T06:34:34.204Z,11.69
2024-05-09T06:35:34.401Z,11.78
2024-05-09T06:36:34.138Z,11.75
2024-05-09T06:37:34.128Z,11.36
2024-05-09T06:38:34.300Z,11.05
2024-05-09T06:39:34.130Z,11.08
2024-05-09T06:40:37.911Z,10.86
2024-05-09T06:41:35.140Z,11.18
2024-05-09T06:42:34.093Z,11.40
2024-05-09T06:43:34.104Z,11.10
2024-05-09T06:44:34.160Z,11.15
2024-05-09T06:45:34.069Z,11.33
2024-05-09T06:46:34.071Z,11.77
2024-05-09T06:47:34.259Z,12.09
2024-05-09T06:48:34.304Z,12.00
2024-05-09T06:49:34.113Z,12.02
2024-05-09T06:50:37.772Z,12.60
2024-05-09T06:51:35.062Z,12.68
2024-05-09T06:52:34.020Z,12.49
2024-05-09T06:53:34.188Z,12.31
2024-05-09T06:54:34.040Z,12.02
2024-05-09T06:55:34.023Z,11.88
2024-05-09T06:56:34.110Z,12.13
2024-05-09T06:57:34.003Z,12.57
2024-05-09T06:58:33.976Z,12.61
2024-05-09T06:59:33.999Z,12.20
2024-05-09T07:00:38.671Z,12.21
2024-05-09T07:01:35.017Z,12.29
2024-05-09T07:02:34.149Z,12.93
2024-05-09T07:03:34.059Z,13.44
2024-05-09T07:04:34.144Z,14.32
2024-05-09T07:05:34.054Z,14.68
2024-05-09T07:06:33.942Z,14.94
2024-05-09T07:07:33.922Z,14.91
2024-05-09T07:08:34.087Z,15.22
2024-05-09T07:09:33.900Z,15.33
2024-05-09T07:10:35.553Z,15.90
2024-05-09T07:11:33.991Z,16.20
2024-05-09T07:12:34.045Z,16.33
2024-05-09T07:13:33.906Z,16.26
2024-05-09T07:14:34.750Z,15.61
2024-05-09T07:15:33.857Z,15.91
2024-05-09T07:16:33.852Z,15.64
2024-05-09T07:17:33.883Z,15.37
2024-05-09T07:18:33.924Z,15.57
2024-05-09T07:19:33.883Z,15.80
2024-05-09T07:20:35.118Z,16.57
2024-05-09T07:21:33.804Z,17.57
2024-05-09T07:22:33.795Z,18.15
2024-05-09T07:23:33.980Z,18.33
2024-05-09T07:24:33.798Z,18.13
2024-05-09T07:25:33.766Z,17.19
2024-05-09T07:26:33.891Z,17.36
2024-05-09T07:27:33.745Z,17.20
2024-05-09T07:28:33.754Z,17.06
2024-05-09T07:29:36.272Z,17.42
2024-05-09T07:30:34.824Z,17.36
2024-05-09T07:31:33.753Z,17.41
2024-05-09T07:32:33.984Z,17.16
2024-05-09T07:33:33.783Z,17.71
2024-05-09T07:34:33.794Z,17.72
2024-05-09T07:35:33.860Z,17.71
2024-05-09T07:36:33.698Z,18.03
2024-05-09T07:37:33.699Z,17.83
2024-05-09T07:38:33.706Z,17.60
2024-05-09T07:39:33.681Z,18.19
2024-05-09T07:40:36.531Z,18.83
2024-05-09T07:41:33.754Z,18.96
2024-05-09T07:42:33.628Z,19.52
2024-05-09T07:43:33.628Z,19.52
2024-05-09T07:44:33.638Z,18.88
2024-05-09T07:50:34.275Z,18.56
2024-05-09T07:52:23.089Z,18.40
2024-05-09T07:53:33.195Z,19.39
2024-05-09T07:53:42.051Z,19.41
2024-05-09T07:54:34.684Z,19.48
2024-05-09T07:55:33.592Z,19.27
2024-05-09T07:56:33.636Z,18.89
2024-05-09T07:57:33.648Z,18.78
2024-05-09T07:58:33.529Z,19.59
2024-05-09T07:59:37.100Z,19.55
2024-05-09T08:00:33.643Z,19.02
2024-05-09T08:01:33.654Z,19.07
2024-05-09T08:02:33.733Z,19.07
2024-05-09T08:03:33.753Z,19.07
2024-05-09T08:04:33.600Z,19.49
2024-05-09T08:05:33.664Z,19.77
2024-05-09T08:06:33.477Z,20.59
2024-05-09T08:07:33.451Z,20.58
2024-05-09T08:08:33.448Z,20.97
2024-05-09T08:09:34.676Z,21.18
2024-05-09T08:10:33.459Z,21.18
2024-05-09T08:11:33.499Z,20.84
2024-05-09T08:12:33.437Z,20.66
2024-05-09T08:13:33.448Z,20.10
2024-05-09T08:14:33.428Z,20.03
2024-05-09T08:15:33.443Z,20.40
2024-05-09T08:16:33.474Z,20.74
2024-05-09T08:17:33.498Z,20.43
2024-05-09T08:18:33.684Z,20.39
2024-05-09T08:19:33.419Z,21.03
2024-05-09T08:20:35.313Z,21.36
2024-05-09T08:21:33.394Z,21.06
2024-05-09T08:22:33.373Z,21.70
2024-05-09T08:23:33.361Z,21.75
2024-05-09T08:24:33.394Z,21.36
2024-05-09T08:25:33.326Z,21.15
2024-05-09T08:26:33.361Z,20.87
2024-05-09T08:27:33.338Z,20.21
2024-05-09T08:28:33.315Z,18.45
2024-05-09T08:29:33.330Z,18.52
2024-05-09T08:30:37.013Z,19.27
2024-05-09T08:31:33.355Z,20.58
2024-05-09T08:32:33.413Z,21.39
2024-05-09T08:33:33.520Z,21.54
2024-05-09T08:34:33.314Z,21.82
2024-05-09T08:35:33.260Z,21.66
2024-05-09T08:36:33.297Z,21.58
2024-05-09T08:37:38.676Z,21.99
2024-05-09T08:38:34.240Z,21.93
2024-05-09T08:39:33.351Z,21.29
2024-05-09T08:40:35.988Z,21.06
2024-05-09T08:41:33.221Z,21.33
2024-05-09T08:42:33.241Z,20.99
2024-05-09T08:43:33.212Z,20.70
2024-05-09T08:44:33.202Z,21.54
2024-05-09T08:45:33.275Z,21.75
2024-05-09T08:46:33.276Z,22.00
2024-05-09T08:47:33.227Z,22.14
2024-05-09T08:48:33.458Z,22.25
2024-05-09T08:49:33.179Z,22.30
2024-05-09T08:50:38.542Z,22.68
2024-05-09T08:51:34.161Z,22.45
2024-05-09T08:52:33.148Z,22.22
2024-05-09T08:53:33.128Z,22.28
2024-05-09T08:54:33.188Z,22.10
2024-05-09T08:55:33.122Z,22.06
2024-05-09T08:56:33.197Z,21.75
2024-05-09T08:57:33.121Z,22.32
2024-05-09T08:58:33.121Z,22.81
2024-05-09T08:59:33.093Z,23.37
2024-05-09T09:00:36.996Z,23.39
2024-05-09T09:01:33.233Z,23.05
2024-05-09T09:02:33.278Z,22.94
2024-05-09T09:03:33.381Z,23.00
2024-05-09T09:04:33.156Z,23.12
2024-05-09T09:05:33.175Z,23.48
2024-05-09T09:06:33.090Z,23.12
2024-05-09T09:07:33.067Z,23.44
2024-05-09T09:08:33.089Z,23.62
2024-05-09T09:09:33.097Z,23.51
2024-05-09T09:10:33.564Z,22.70
2024-05-09T09:11:33.035Z,22.29
2024-05-09T09:12:33.080Z,21.51
2024-05-09T09:13:33.033Z,21.09
2024-05-09T09:14:33.021Z,21.77
2024-05-09T09:15:33.336Z,21.83
2024-05-09T09:16:33.035Z,22.33
2024-05-09T09:17:33.028Z,22.45
2024-05-09T09:18:33.297Z,22.20
2024-05-09T09:19:33.072Z,22.11
2024-05-09T09:20:36.540Z,22.32
2024-05-09T09:21:33.003Z,22.20
2024-05-09T09:22:32.940Z,22.44
2024-05-09T09:23:32.966Z,22.69
2024-05-09T09:24:32.957Z,22.36
2024-05-09T09:25:32.928Z,22.55
2024-05-09T09:26:32.928Z,22.26
2024-05-09T09:27:32.944Z,22.84
2024-05-09T09:28:32.914Z,22.55
2024-05-09T09:29:32.895Z,22.43
2024-05-09T09:30:37.317Z,22.41
2024-05-09T09:31:34.174Z,22.47
2024-05-09T09:32:33.039Z,22.83
2024-05-09T09:33:33.382Z,22.29
2024-05-09T09:34:32.999Z,21.95
2024-05-09T09:35:32.974Z,22.39
2024-05-09T09:36:32.908Z,23.00
2024-05-09T09:37:32.821Z,23.12
2024-05-09T09:38:32.828Z,22.73
2024-05-09T09:39:32.834Z,21.91
2024-05-09T09:40:34.950Z,21.85
2024-05-09T09:41:32.802Z,22.20
2024-05-09T09:42:32.827Z,22.47
2024-05-09T09:43:32.808Z,22.43
2024-05-09T09:44:33.043Z,22.59
2024-05-09T09:45:32.797Z,22.63
2024-05-09T09:46:32.932Z,22.23
2024-05-09T09:47:32.833Z,22.22
2024-05-09T09:48:32.816Z,22.66
2024-05-09T09:49:32.845Z,22.83
2024-05-09T09:50:34.825Z,22.90
2024-05-09T09:51:32.790Z,22.81
2024-05-09T09:52:32.778Z,22.32
2024-05-09T09:53:32.720Z,22.02
2024-05-09T09:54:32.739Z,22.44
2024-05-09T09:55:32.694Z,23.17
2024-05-09T09:56:32.716Z,22.85
2024-05-09T09:57:32.762Z,22.75
2024-05-09T09:58:32.738Z,22.57
2024-05-09T09:59:32.668Z,22.30
2024-05-09T10:00:33.804Z,22.84
2024-05-09T10:01:32.813Z,22.22
2024-05-09T10:02:32.834Z,21.25
2024-05-09T10:03:32.875Z,21.67
2024-05-09T10:04:32.791Z,22.25
2024-05-09T10:05:32.700Z,22.28
2024-05-09T10:06:32.692Z,21.64
2024-05-09T10:07:32.620Z,20.81
2024-05-09T10:08:32.619Z,21.45
2024-05-09T10:09:32.625Z,21.57
2024-05-09T10:10:33.342Z,22.22
2024-05-09T10:11:37.034Z,22.53
2024-05-09T10:12:33.742Z,22.75
2024-05-09T10:13:32.663Z,21.51
2024-05-09T10:14:32.573Z,22.25
2024-05-09T10:15:32.643Z,22.93
2024-05-09T10:16:32.620Z,22.39
2024-05-09T10:17:32.799Z,22.41
2024-05-09T10:18:34.385Z,22.78
2024-05-09T10:19:32.698Z,22.50
2024-05-09T10:20:33.077Z,22.08
2024-05-09T10:21:32.558Z,21.07
2024-05-09T10:22:32.533Z,21.36
2024-05-09T10:23:32.722Z,21.51
2024-05-09T10:24:32.559Z,21.64
2024-05-09T10:25:32.683Z,22.07
2024-05-09T10:26:32.519Z,22.08
2024-05-09T10:27:32.505Z,22.50
2024-05-09T10:28:32.471Z,22.81
2024-05-09T10:29:32.478Z,22.55
2024-05-09T10:30:35.997Z,21.98
2024-05-09T10:31:32.578Z,21.69
2024-05-09T10:32:32.630Z,21.62
2024-05-09T10:33:32.652Z,22.04
2024-05-09T10:34:32.669Z,21.92
2024-05-09T10:35:32.415Z,21.51
2024-05-09T10:36:32.456Z,21.17
2024-05-09T10:37:32.489Z,21.48
2024-05-09T10:38:32.406Z,21.75
2024-05-09T10:39:32.445Z,21.85
2024-05-09T10:40:32.533Z,22.25
2024-05-09T10:41:32.375Z,22.57
2024-05-09T10:42:32.470Z,22.84
2024-05-09T10:43:32.364Z,23.18
2024-05-09T10:44:32.368Z,22.84
2024-05-09T10:45:32.401Z,22.04
2024-05-09T10:46:32.341Z,21.36
2024-05-09T10:47:32.384Z,21.61
2024-05-09T10:48:32.547Z,21.32
2024-05-09T10:49:32.434Z,21.25
2024-05-09T10:50:34.437Z,21.40
2024-05-09T10:51:32.361Z,21.72
2024-05-09T10:52:32.301Z,21.40
2024-05-09T10:53:32.315Z,21.76
2024-05-09T10:54:32.331Z,21.95
2024-05-09T10:55:32.343Z,22.29
2024-05-09T10:56:32.299Z,22.47
2024-05-09T10:57:32.298Z,22.04
2024-05-09T10:58:32.278Z,21.89
2024-05-09T10:59:32.286Z,22.18
2024-05-09T11:00:36.030Z,21.69
2024-05-09T11:01:32.410Z,21.69
2024-05-09T11:02:32.394Z,21.91
2024-05-09T11:03:32.432Z,21.96
2024-05-09T11:04:32.258Z,21.77
2024-05-09T11:05:32.380Z,21.42
2024-05-09T11:06:32.314Z,22.11
2024-05-09T11:07:32.279Z,22.15
2024-05-09T11:08:35.212Z,22.20
2024-05-09T11:09:32.344Z,22.18
2024-05-09T11:10:34.332Z,21.52
2024-05-09T11:11:32.193Z,21.58
2024-05-09T11:12:32.286Z,21.61
2024-05-09T11:13:32.329Z,21.98
2024-05-09T11:14:32.145Z,22.45
2024-05-09T11:15:32.177Z,22.13
2024-05-09T11:16:32.195Z,22.26
2024-05-09T11:17:32.188Z,22.65
2024-05-09T11:18:36.206Z,22.38
2024-05-09T11:19:33.220Z,22.08
2024-05-09T11:20:35.022Z,20.87
2024-05-09T11:21:32.106Z,21.24
2024-05-09T11:22:32.086Z,21.93
2024-05-09T11:23:32.140Z,21.88
2024-05-09T11:24:32.087Z,21.95
2024-05-09T11:25:32.070Z,22.23
2024-05-09T11:26:32.060Z,22.25
2024-05-09T11:27:32.100Z,22.78
2024-05-09T11:28:32.042Z,23.17
2024-05-09T11:29:32.046Z,23.43
2024-05-09T11:30:32.742Z,23.31
2024-05-09T11:31:32.152Z,23.62
2024-05-09T11:32:32.107Z,23.96
2024-05-09T11:33:32.120Z,23.61
2024-05-09T11:34:32.130Z,23.84
2024-05-09T11:35:31.988Z,23.74
2024-05-09T11:36:32.096Z,23.59
2024-05-09T11:37:34.601Z,22.54
2024-05-09T11:38:31.976Z,22.45
2024-05-09T11:39:32.065Z,22.53
2024-05-09T11:41:31.944Z,22.85
2024-05-09T11:42:31.955Z,23.00
2024-05-09T11:43:32.109Z,22.81
2024-05-09T11:44:31.930Z,22.88
2024-05-09T11:45:32.022Z,22.41
2024-05-09T11:46:31.912Z,22.07
2024-05-09T11:47:32.052Z,21.80
2024-05-09T11:48:32.366Z,21.36
2024-05-09T11:49:32.021Z,20.70
2024-05-09T11:50:35.477Z,20.75
2024-05-09T11:51:31.966Z,21.14
2024-05-09T11:52:31.870Z,21.52
2024-05-09T11:53:31.877Z,21.67
2024-05-09T11:54:31.875Z,22.33
2024-05-09T11:55:31.941Z,22.85
2024-05-09T11:56:31.877Z,23.09
2024-05-09T11:57:31.870Z,23.17
2024-05-09T11:58:31.887Z,23.18
2024-05-09T11:59:31.828Z,22.96
2024-05-09T12:00:36.709Z,22.60
2024-05-09T12:01:32.951Z,22.51
2024-05-09T12:02:31.922Z,22.25
2024-05-09T12:03:31.948Z,21.95
2024-05-09T12:04:32.009Z,22.62
2024-05-09T12:05:31.973Z,22.60
2024-05-09T12:06:31.813Z,22.81
2024-05-09T12:07:31.843Z,23.44
2024-05-09T12:08:31.760Z,23.37
2024-05-09T12:09:31.778Z,23.73
2024-05-09T12:10:34.458Z,23.17
2024-05-09T12:11:31.764Z,22.85
2024-05-09T12:12:32.954Z,22.15
2024-05-09T12:13:31.809Z,21.95
2024-05-09T12:14:31.710Z,22.18
2024-05-09T12:15:31.743Z,21.91
2024-05-09T12:16:32.055Z,22.04
2024-05-09T12:17:31.824Z,22.98
2024-05-09T12:18:31.773Z,22.94
2024-05-09T12:19:31.723Z,22.88
2024-05-09T12:21:31.718Z,23.84
2024-05-09T12:22:31.660Z,24.36
2024-05-09T12:23:31.675Z,24.16
2024-05-09T12:24:31.653Z,23.81
2024-05-09T12:25:31.637Z,23.84
2024-05-09T12:26:31.646Z,24.10
2024-05-09T12:27:31.658Z,23.50
2024-05-09T12:28:31.634Z,22.85
2024-05-09T12:29:31.615Z,22.00
2024-05-09T12:30:37.490Z,21.70
2024-05-09T12:31:32.761Z,21.40
2024-05-09T12:32:31.646Z,21.76
2024-05-09T12:33:31.636Z,21.88
2024-05-09T12:34:31.689Z,22.17
2024-05-09T12:35:31.577Z,22.26
2024-05-09T12:36:31.609Z,22.35
2024-05-09T12:37:31.552Z,22.55
2024-05-09T12:38:31.554Z,22.48
2024-05-09T12:39:31.602Z,22.22
2024-05-09T12:40:36.401Z,22.39
2024-05-09T12:41:32.548Z,22.47
2024-05-09T12:42:33.710Z,22.69
2024-05-09T12:43:31.616Z,22.73
2024-05-09T12:44:31.495Z,23.06
2024-05-09T12:45:31.646Z,23.02
2024-05-09T12:46:31.548Z,23.12
2024-05-09T12:47:31.527Z,23.44
2024-05-09T12:48:31.618Z,22.96
2024-05-09T12:49:31.620Z,22.36
2024-05-09T12:50:33.586Z,21.35
2024-05-09T12:51:31.514Z,21.36
2024-05-09T12:52:31.441Z,21.64
2024-05-09T12:53:31.432Z,21.91
2024-05-09T12:54:31.459Z,22.07
2024-05-09T12:55:37.366Z,22.23
2024-05-09T12:56:32.418Z,22.18
2024-05-09T12:57:31.463Z,22.35
2024-05-09T12:58:31.397Z,22.32
2024-05-09T12:59:31.394Z,22.36
2024-05-09T13:00:34.026Z,22.26
2024-05-09T13:01:31.504Z,22.70
2024-05-09T13:02:31.488Z,23.15
2024-05-09T13:03:31.494Z,23.65
2024-05-09T13:04:31.638Z,23.87
2024-05-09T13:05:31.589Z,24.14
2024-05-09T13:06:31.363Z,24.17
2024-05-09T13:07:31.330Z,24.08
2024-05-09T13:08:31.354Z,24.21
2024-05-09T13:09:31.356Z,24.61
2024-05-09T13:10:33.109Z,24.81
2024-05-09T13:11:31.379Z,24.47